Time;durP1;ratioP1;P1;durP2;ratioP2;P2;SDS_P1;SDS_P2;PMS_P1;PMS_P2;Temp;Humidity;BMP_temperature;BMP_pressure;BME280_temperature;BME280_humidity;BME280_pressure;Samples;Min_cycle;Max_cycle;Signal;HPM_P1;HPM_P2
2022/08/17 00:01:55;;;;;;;4.57;4.28;;;;;;;23.84;49.42;100689.03;5063739;28;20033;-70
2022/08/17 00:04:20;;;;;;;4.03;3.72;;;;;;;23.83;49.18;100689.31;5047947;28;20025;-70
2022/08/17 00:06:46;;;;;;;4.55;4.18;;;;;;;23.83;49.10;100686.59;5059202;28;20071;-70
2022/08/17 00:09:11;;;;;;;4.38;4.07;;;;;;;23.82;49.18;100688.50;5055388;28;20510;-70
2022/08/17 00:11:43;;;;;;;4.18;3.88;;;;;;;23.81;49.23;100682.19;5057697;28;20348;-70
2022/08/17 00:14:13;;;;;;;3.97;3.67;;;;;;;23.80;49.19;100674.25;5056965;28;20040;-70
2022/08/17 00:16:57;;;;;;;3.78;3.47;;;;;;;23.84;49.33;100677.31;5039193;28;20033;-70
2022/08/17 00:19:23;;;;;;;4.10;3.80;;;;;;;23.81;49.14;100674.00;5056485;28;20085;-70
2022/08/17 00:21:50;;;;;;;4.28;3.97;;;;;;;23.80;49.16;100666.91;5056571;28;20036;-70
2022/08/17 00:24:16;;;;;;;4.70;4.30;;;;;;;23.80;49.25;100679.72;5056956;28;20025;-70
2022/08/17 00:26:41;;;;;;;3.78;3.47;;;;;;;23.79;49.27;100662.53;5067207;28;20081;-70
2022/08/17 00:29:07;;;;;;;4.03;3.72;;;;;;;23.80;49.28;100669.63;5076617;28;20363;-70
2022/08/17 00:31:34;;;;;;;4.20;3.90;;;;;;;23.82;49.39;100661.22;5076578;28;20028;-70
2022/08/17 00:33:59;;;;;;;4.03;3.72;;;;;;;23.80;49.47;100666.91;5076293;28;20068;-70
2022/08/17 00:36:25;;;;;;;4.60;4.20;;;;;;;23.80;49.47;100658.72;5076169;28;20028;-70
2022/08/17 00:38:51;;;;;;;4.10;3.80;;;;;;;23.80;49.47;100664.19;5077067;28;20052;-70
2022/08/17 00:41:19;;;;;;;3.88;3.58;;;;;;;23.78;49.45;100666.34;5059068;28;20051;-70
2022/08/17 00:43:46;;;;;;;4.30;4.00;;;;;;;23.79;49.29;100662.53;5075979;28;20036;-70
2022/08/17 00:46:17;;;;;;;3.92;3.63;;;;;;;23.78;49.28;100660.91;5076305;28;20104;-70
2022/08/17 00:48:43;;;;;;;4.20;3.90;;;;;;;23.78;49.54;100669.09;5075920;28;20475;-70
2022/08/17 00:51:18;;;;;;;3.95;3.65;;;;;;;23.77;49.31;100667.44;5075891;28;20040;-70
2022/08/17 00:53:48;;;;;;;4.15;3.85;;;;;;;23.77;49.10;100661.97;5076150;28;20032;-70
2022/08/17 00:56:17;;;;;;;4.10;3.80;;;;;;;23.77;49.06;100663.91;5057993;28;20029;-70
2022/08/17 00:58:43;;;;;;;4.00;3.70;;;;;;;23.77;48.91;100666.63;5058176;28;20103;-70
2022/08/17 01:01:08;;;;;;;4.20;3.90;;;;;;;23.76;48.93;100668.50;5058145;28;20153;-70
2022/08/17 01:03:34;;;;;;;4.15;3.85;;;;;;;23.76;49.03;100673.97;5076083;28;20033;-70
2022/08/17 01:05:59;;;;;;;3.50;3.20;;;;;;;23.76;48.82;100671.25;5058450;28;20024;-70
2022/08/17 01:08:26;;;;;;;4.18;3.88;;;;;;;23.74;49.04;100665.22;5057936;28;20021;-70
2022/08/17 01:10:54;;;;;;;3.85;3.55;;;;;;;23.75;48.88;100669.63;5075966;28;20086;-70
2022/08/17 01:13:20;;;;;;;4.30;4.00;;;;;;;23.76;48.92;100662.25;5076031;28;20111;-70
2022/08/17 01:15:49;;;;;;;4.00;3.70;;;;;;;23.75;48.96;100657.88;5075692;28;20496;-70
2022/08/17 01:18:15;;;;;;;3.92;3.63;;;;;;;23.75;48.80;100666.88;5041435;28;20029;-70
2022/08/17 01:20:48;;;;;;;3.50;3.20;;;;;;;23.72;48.54;100667.41;5074858;28;20486;-70
2022/08/17 01:23:14;;;;;;;4.20;3.90;;;;;;;23.74;48.76;100665.22;5075548;28;20025;-70
2022/08/17 01:25:40;;;;;;;4.10;3.70;;;;;;;23.74;48.84;100664.44;5057196;28;20030;-70
2022/08/17 01:28:05;;;;;;;4.13;3.83;;;;;;;23.74;48.58;100664.44;5075462;28;20024;-70
2022/08/17 01:30:31;;;;;;;3.75;3.45;;;;;;;23.74;48.53;100659.78;5075487;28;20051;-70
2022/08/17 01:32:56;;;;;;;3.50;3.30;;;;;;;23.75;48.62;100660.59;5071431;28;20049;-70
2022/08/17 01:35:22;;;;;;;3.83;3.53;;;;;;;23.73;48.64;100663.63;5055523;28;20032;-70
2022/08/17 01:37:47;;;;;;;4.00;3.70;;;;;;;23.74;48.66;100662.50;5020781;28;20472;-70
2022/08/17 01:40:34;;;;;;;3.80;3.50;;;;;;;23.74;48.74;100653.50;5054984;28;20021;-70
2022/08/17 01:43:06;;;;;;;3.97;3.67;;;;;;;23.72;48.76;100651.06;5037614;28;20040;-70
2022/08/17 01:45:32;;;;;;;4.15;3.83;;;;;;;23.73;48.85;100655.44;5037565;28;20104;-70
2022/08/17 01:47:58;;;;;;;4.15;3.78;;;;;;;23.72;49.08;100644.78;5055098;28;20082;-70
2022/08/17 01:50:27;;;;;;;4.30;4.00;;;;;;;23.72;49.06;100645.59;5055250;28;20021;-70
2022/08/17 01:52:56;;;;;;;4.28;3.97;;;;;;;23.71;49.08;100641.22;5054919;28;20367;-70
2022/08/17 01:55:23;;;;;;;4.15;3.85;;;;;;;23.71;49.07;100638.47;5055071;28;20021;-71
2022/08/17 01:57:49;;;;;;;4.13;3.83;;;;;;;23.72;49.34;100640.13;5037284;28;20100;-71
2022/08/17 02:00:14;;;;;;;4.07;3.78;;;;;;;23.73;49.23;100646.41;5054912;28;20483;-71
2022/08/17 02:02:40;;;;;;;4.32;4.03;;;;;;;23.70;49.38;100645.03;5054884;28;20367;-71
2022/08/17 02:05:05;;;;;;;4.13;3.80;;;;;;;23.71;49.25;100633.03;5054771;28;20379;-71
2022/08/17 02:07:31;;;;;;;4.15;3.85;;;;;;;23.71;49.31;100635.75;5055432;28;20313;-71
2022/08/17 02:09:56;;;;;;;4.05;3.75;;;;;;;23.69;49.60;100635.22;5054822;28;20028;-71
2022/08/17 02:12:23;;;;;;;4.40;4.00;;;;;;;23.70;49.45;100630.56;5054646;28;20033;-71
2022/08/17 02:14:49;;;;;;;4.20;3.90;;;;;;;23.68;49.50;100625.41;5055099;28;20068;-71
2022/08/17 02:17:15;;;;;;;4.63;4.22;;;;;;;23.70;49.51;100634.13;5054546;28;20399;-71
2022/08/17 02:19:40;;;;;;;4.10;3.80;;;;;;;23.69;49.75;100624.28;5055261;28;20478;-71
2022/08/17 02:22:06;;;;;;;4.00;3.70;;;;;;;23.68;49.73;100614.50;5054122;28;20488;-71
2022/08/17 02:24:33;;;;;;;4.97;4.22;;;;;;;23.69;50.04;100618.03;5054454;28;20036;-71
2022/08/17 02:26:58;;;;;;;3.83;3.53;;;;;;;23.68;50.16;100611.75;5053848;28;20029;-71
2022/08/17 02:29:25;;;;;;;4.13;3.83;;;;;;;23.68;50.21;100609.03;5036437;28;20087;-71
2022/08/17 02:31:50;;;;;;;4.40;4.10;;;;;;;23.67;50.04;100601.94;5054113;28;20025;-71
2022/08/17 02:34:16;;;;;;;4.10;3.80;;;;;;;23.66;50.22;100603.00;5069201;28;20052;-71
2022/08/17 02:36:42;;;;;;;4.57;4.18;;;;;;;23.68;50.59;100610.91;5073814;28;20467;-71
2022/08/17 02:39:09;;;;;;;4.57;4.18;;;;;;;23.67;50.34;100599.19;5073928;28;20058;-71
2022/08/17 02:41:35;;;;;;;4.40;4.10;;;;;;;23.66;50.42;100599.47;5074476;28;20494;-71
2022/08/17 02:44:00;;;;;;;4.70;4.30;;;;;;;23.67;50.41;100603.84;5073681;28;20360;-71
2022/08/17 02:46:27;;;;;;;4.55;4.20;;;;;;;23.67;50.37;100599.19;5073929;28;20028;-71
2022/08/17 02:48:52;;;;;;;4.10;3.80;;;;;;;23.66;50.22;100589.34;5073764;28;20127;-71
2022/08/17 02:51:17;;;;;;;4.32;3.97;;;;;;;23.66;50.47;100575.72;5073699;28;20033;-71
2022/08/17 02:53:43;;;;;;;4.47;4.07;;;;;;;23.66;50.47;100583.91;5073886;28;20025;-71
2022/08/17 02:56:08;;;;;;;4.93;4.53;;;;;;;23.66;50.48;100574.91;5074051;28;20363;-71
2022/08/17 02:58:34;;;;;;;4.30;4.00;;;;;;;23.66;50.39;100586.63;5073966;28;20043;-71
2022/08/17 03:00:59;;;;;;;4.18;3.88;;;;;;;23.67;50.76;100587.47;5073787;28;20374;-71
2022/08/17 03:03:25;;;;;;;4.50;4.10;;;;;;;23.67;50.85;100582.81;5073422;28;20024;-71
2022/08/17 03:05:51;;;;;;;4.63;4.22;;;;;;;23.68;50.65;100581.75;5055690;28;20032;-71
2022/08/17 03:08:17;;;;;;;4.50;4.10;;;;;;;23.70;50.90;100587.75;5073472;28;20051;-71
2022/08/17 03:10:42;;;;;;;4.07;3.78;;;;;;;23.70;50.84;100585.03;5073587;28;20036;-71
2022/08/17 03:13:08;;;;;;;4.28;3.97;;;;;;;23.72;50.97;100580.09;5073647;28;20029;-71
2022/08/17 03:15:34;;;;;;;4.90;4.50;;;;;;;23.73;50.91;100581.75;5073480;28;20028;-71
2022/08/17 03:18:00;;;;;;;6.05;4.43;;;;;;;23.73;51.14;100591.84;5073301;28;20335;-71
2022/08/17 03:20:26;;;;;;;4.05;3.75;;;;;;;23.74;51.00;100582.56;5073497;28;20036;-71
2022/08/17 03:22:53;;;;;;;4.20;3.90;;;;;;;23.75;51.11;100579.56;5073042;28;20059;-70
2022/08/17 03:25:35;;;;;;;4.55;4.15;;;;;;;23.78;51.15;100578.19;5073521;28;20090;-71
2022/08/17 03:28:01;;;;;;;4.03;3.72;;;;;;;23.78;51.37;100573.56;5073202;28;20028;-70
2022/08/17 03:30:27;;;;;;;4.47;4.13;;;;;;;23.82;50.92;100579.34;5073071;28;20089;-70
2022/08/17 03:32:55;;;;;;;4.47;4.18;;;;;;;23.81;50.98;100575.78;5069864;28;20053;-70
2022/08/17 03:35:24;;;;;;;3.90;3.60;;;;;;;23.85;51.24;100567.03;5052988;28;20472;-70
2022/08/17 03:37:49;;;;;;;4.75;4.35;;;;;;;23.87;51.73;100573.03;5053200;28;20033;-70
2022/08/17 03:40:16;;;;;;;4.35;4.03;;;;;;;23.88;51.46;100570.03;5053692;28;20109;-70
2022/08/17 03:42:41;;;;;;;4.88;4.47;;;;;;;23.90;51.59;100573.31;5053097;28;20029;-70
2022/08/17 03:45:09;;;;;;;4.32;3.97;;;;;;;23.92;51.17;100575.78;5052603;28;20128;-70
2022/08/17 03:58:35;;;;;;;4.68;4.22;;;;;;;24.05;51.26;100583.44;5053085;28;20040;-70
2022/08/17 04:01:01;;;;;;;4.80;4.40;;;;;;;24.04;51.31;100580.97;5053555;28;20375;-70
2022/08/17 04:03:26;;;;;;;5.00;4.60;;;;;;;24.03;51.47;100577.44;5034974;28;20036;-70
2022/08/17 04:05:51;;;;;;;4.30;3.90;;;;;;;24.04;51.73;100575.50;5035349;28;20032;-70
2022/08/17 04:08:17;;;;;;;4.68;4.28;;;;;;;24.04;51.30;100575.50;5053284;28;20028;-72
2022/08/17 04:10:43;;;;;;;4.75;4.35;;;;;;;24.06;51.12;100579.63;5055746;28;20052;-70
2022/08/17 04:13:08;;;;;;;6.13;4.32;;;;;;;24.09;51.22;100579.06;5035980;28;20052;-70
2022/08/17 04:15:34;;;;;;;4.30;4.00;;;;;;;24.10;51.57;100583.44;5053644;28;20032;-70
2022/08/17 04:17:59;;;;;;;4.50;4.10;;;;;;;24.09;51.23;100589.97;5054268;28;20033;-70
2022/08/17 04:20:26;;;;;;;4.47;4.07;;;;;;;24.09;51.65;100581.78;5053951;28;20368;-70
2022/08/17 04:23:20;;;;;;;4.78;4.20;;;;;;;24.15;51.44;100582.63;5056400;28;20097;-71
2022/08/17 04:25:47;;;;;;;;;;;;;;;24.29;50.55;100582.88;4960873;29;20043;-70
2022/08/17 04:28:14;;;;;;;4.30;4.00;;;;;;;24.18;50.93;100577.44;4962234;29;19914;-70
2022/08/17 04:30:40;;;;;;;5.30;4.80;;;;;;;24.16;50.90;100581.50;4961483;29;20035;-70
2022/08/17 04:33:07;;;;;;;4.30;3.90;;;;;;;24.15;50.54;100577.97;4957773;28;20077;-71
2022/08/17 04:35:44;;;;;;;4.50;4.10;;;;;;;24.17;50.68;100580.44;4985001;28;20039;-70
2022/08/17 04:38:11;;;;;;;4.35;4.00;;;;;;;24.16;50.40;100571.44;4986993;28;20062;-70
2022/08/17 04:43:21;;;;;;;;;;;;;;;24.34;50.51;100574.69;4972670;28;20472;-70
2022/08/17 04:45:50;;;;;;;4.22;3.88;;;;;;;24.23;50.45;100573.03;4956230;28;20049;-70
2022/08/17 04:48:15;;;;;;;4.38;4.00;;;;;;;24.23;50.91;100578.50;4971517;28;20125;-70
2022/08/17 04:50:45;;;;;;;4.80;4.30;;;;;;;24.11;50.85;100576.91;4972007;28;20490;-70
2022/08/17 04:53:10;;;;;;;4.75;4.35;;;;;;;24.07;51.24;100581.25;4971853;28;20055;-71
2022/08/17 04:55:36;;;;;;;9.05;4.95;;;;;;;24.08;51.34;100577.44;4973379;28;20456;-71
2022/08/17 04:58:02;;;;;;;5.28;4.57;;;;;;;24.11;50.83;100571.44;4975084;28;20413;-73
2022/08/17 05:00:27;;;;;;;14.32;5.38;;;;;;;24.08;51.09;100576.63;4975341;28;20070;-71
2022/08/17 05:02:53;;;;;;;9.13;5.10;;;;;;;24.14;51.26;100570.88;5056332;28;20043;-70
2022/08/17 05:05:23;;;;;;;9.18;5.20;;;;;;;24.17;51.24;100586.69;5075714;28;20026;-70
2022/08/17 05:07:56;;;;;;;7.60;5.20;;;;;;;24.15;50.95;100572.50;5076013;28;20020;-70
2022/08/17 05:10:22;;;;;;;6.68;4.60;;;;;;;24.19;50.96;100580.97;5075613;28;20020;-72
2022/08/17 05:13:03;;;;;;;7.45;4.70;;;;;;;24.14;51.32;100579.06;5075652;28;20027;-71
2022/08/17 05:15:29;;;;;;;7.63;4.85;;;;;;;24.21;50.86;100569.78;5075708;28;20027;-71
2022/08/17 05:17:54;;;;;;;9.30;4.63;;;;;;;24.17;51.70;100575.78;5056295;28;20473;-71
2022/08/17 05:20:20;;;;;;;5.30;4.63;;;;;;;24.22;50.70;100577.69;5075747;28;20021;-71
2022/08/17 05:22:57;;;;;;;7.07;4.72;;;;;;;24.14;51.20;100576.31;5075819;28;20031;-72
2022/08/17 05:25:27;;;;;;;6.80;5.40;;;;;;;24.09;52.00;100575.50;5058350;28;20024;-71
2022/08/17 05:27:53;;;;;;;7.95;5.00;;;;;;;24.13;51.76;100574.69;5059995;28;20074;-71
2022/08/17 05:30:19;;;;;;;7.90;5.18;;;;;;;24.08;52.27;100571.16;5055800;28;20099;-71
2022/08/17 05:32:59;;;;;;;8.93;4.55;;;;;;;24.12;51.99;100573.06;5055678;28;20021;-71
2022/08/17 05:35:25;;;;;;;7.35;4.45;;;;;;;24.23;51.47;100579.31;5068616;28;20024;-72
2022/08/17 05:37:52;;;;;;;5.75;4.72;;;;;;;24.21;51.27;100573.31;5075540;28;20095;-71
2022/08/17 05:40:18;;;;;;;4.82;4.43;;;;;;;24.29;51.22;100572.78;5076241;28;20029;-71
2022/08/17 05:42:44;;;;;;;5.53;4.55;;;;;;;24.18;51.42;100571.97;5076436;28;20066;-71
2022/08/17 05:45:09;;;;;;;4.88;4.47;;;;;;;24.21;52.35;100581.50;5076089;28;20020;-71
2022/08/17 05:47:36;;;;;;;5.13;4.63;;;;;;;24.15;52.46;100567.06;5076416;28;20126;-70
2022/08/17 05:50:02;;;;;;;5.57;4.82;;;;;;;24.17;52.64;100573.06;5059201;28;20024;-70
2022/08/17 05:52:40;;;;;;;5.07;4.57;;;;;;;24.19;52.17;100572.78;5079449;28;20025;-70
2022/08/17 05:55:34;;;;;;;5.63;4.22;;;;;;;24.25;51.79;100559.94;5064698;28;20035;-70
2022/08/17 05:58:18;;;;;;;5.93;4.65;;;;;;;24.19;51.90;100565.41;5082959;28;20083;-69
2022/08/17 06:00:54;;;;;;;;;;;;;;;24.24;52.35;100567.31;5084374;28;20033;-70
2022/08/17 06:03:41;;;;;;;5.25;4.40;;;;;;;24.19;52.34;100564.59;5082475;28;19915;-70
2022/08/17 06:06:30;;;;;;;5.22;4.57;;;;;;;24.16;52.30;100562.41;5068461;28;20032;-70
2022/08/17 06:09:31;;;;;;;4.60;4.20;;;;;;;24.25;51.91;100559.94;5048187;28;20101;-70
2022/08/17 06:12:08;;;;;;;6.32;4.70;;;;;;;24.20;52.00;100560.78;5039360;28;20121;-70
2022/08/17 06:14:44;;;;;;;4.93;4.35;;;;;;;24.13;52.13;100561.06;5036311;28;20113;-70
2022/08/17 06:17:12;;;;;;;5.25;4.22;;;;;;;24.15;52.30;100563.50;5036527;28;20041;-70
2022/08/17 06:19:50;;;;;;;4.32;3.92;;;;;;;24.24;52.03;100553.66;5033419;28;20064;-70
2022/08/17 06:22:18;;;;;;;5.00;4.50;;;;;;;24.20;52.19;100558.03;5016572;28;20048;-70
2022/08/17 06:24:50;;;;;;;5.13;4.40;;;;;;;24.18;52.54;100555.59;5016067;28;20103;-69
2022/08/17 06:27:18;;;;;;;4.72;4.15;;;;;;;24.20;52.38;100558.03;5016048;28;20411;-70
2022/08/17 06:29:47;;;;;;;5.03;4.53;;;;;;;24.22;52.40;100555.03;5016126;28;20120;-70
2022/08/17 06:32:13;;;;;;;4.93;4.53;;;;;;;24.22;53.18;100560.50;5033973;28;20167;-70
2022/08/17 06:34:40;;;;;;;4.65;4.25;;;;;;;24.18;53.20;100544.66;5033438;28;20049;-71
2022/08/17 06:37:25;;;;;;;5.40;4.30;;;;;;;24.25;52.98;100554.47;5000379;28;20452;-71
2022/08/17 06:40:06;;;;;;;5.40;4.90;;;;;;;24.16;53.29;100549.59;5015935;28;20067;-71
2022/08/17 06:42:43;;;;;;;4.80;4.40;;;;;;;24.25;52.93;100538.09;5032249;28;20095;-71
2022/08/17 06:45:12;;;;;;;4.45;4.05;;;;;;;24.14;53.31;100532.63;5033633;28;20036;-71
2022/08/17 06:47:46;;;;;;;5.47;4.55;;;;;;;24.22;53.07;100538.66;5024460;28;20547;-71
2022/08/17 06:50:26;;;;;;;5.88;4.88;;;;;;;24.19;53.30;100535.34;5057299;28;20025;-70
2022/08/17 06:53:16;;;;;;;5.32;4.82;;;;;;;24.13;53.77;100533.75;5056474;28;20119;-71
2022/08/17 06:56:07;;;;;;;5.18;4.68;;;;;;;24.18;53.49;100535.63;5057613;28;20029;-70
2022/08/17 06:58:34;;;;;;;5.07;4.57;;;;;;;24.35;53.09;100527.16;5056182;28;20028;-70
2022/08/17 07:01:20;;;;;;;5.10;4.60;;;;;;;24.35;52.95;100532.59;5055944;28;20028;-71
2022/08/17 07:04:21;;;;;;;5.07;4.63;;;;;;;24.39;52.86;100533.72;5073581;28;20106;-72
2022/08/17 07:10:16;;;;;;;5.72;4.18;;;;;;;24.35;53.05;100530.72;5031457;28;20033;-70
2022/08/17 07:12:41;;;;;;;4.85;4.45;;;;;;;24.44;52.60;100536.44;5031341;28;20029;-71
2022/08/17 07:15:15;;;;;;;4.97;4.47;;;;;;;24.34;53.09;100533.72;5014660;28;20061;-71
2022/08/17 07:17:41;;;;;;;5.20;4.70;;;;;;;24.35;53.05;100530.72;5014797;28;20108;-70
2022/08/17 07:20:08;;;;;;;4.72;4.32;;;;;;;24.35;52.67;100533.44;5031010;28;20037;-70
2022/08/17 07:22:40;;;;;;;5.90;4.47;;;;;;;24.34;53.41;100533.72;5014754;28;20427;-72
2022/08/17 07:25:10;;;;;;;5.65;4.63;;;;;;;24.35;53.16;100524.41;5031934;28;20150;-70
2022/08/17 07:27:38;;;;;;;4.80;4.40;;;;;;;24.42;52.90;100522.22;5028312;28;20075;-70
2022/08/17 07:30:23;;;;;;;10.50;5.97;;;;;;;24.36;53.13;100523.34;5031475;28;20427;-70
2022/08/17 07:32:56;;;;;;;7.55;5.75;;;;;;;24.33;53.99;100519.22;5016371;28;20072;-72
2022/08/17 07:35:27;;;;;;;5.63;5.07;;;;;;;24.27;53.96;100527.72;5031618;28;20037;-72
2022/08/17 07:38:14;;;;;;;6.32;5.55;;;;;;;24.34;54.14;100522.78;5032386;28;20021;-72
2022/08/17 07:41:02;;;;;;;9.00;4.85;;;;;;;24.33;53.96;100526.59;5047901;28;20045;-71
2022/08/17 07:43:36;;;;;;;4.90;4.50;;;;;;;24.38;53.88;100521.13;5069984;28;20052;-73
2022/08/17 07:49:19;;;;;;;4.93;4.53;;;;;;;24.46;53.48;100517.84;5074846;28;20441;-73
2022/08/17 07:51:45;;;;;;;4.63;4.20;;;;;;;24.48;53.22;100521.09;5074975;28;20048;-73
2022/08/17 07:54:13;;;;;;;5.63;4.45;;;;;;;24.55;53.40;100520.84;5074482;28;20048;-72
2022/08/17 07:56:47;;;;;;;4.65;4.25;;;;;;;24.57;52.98;100521.38;5073478;28;20031;-72
2022/08/17 07:59:13;;;;;;;;;;;;;;;24.63;53.20;100516.72;5056986;28;20039;-72
2022/08/17 08:01:38;;;;;;;4.83;4.20;;;;;;;24.60;53.06;100522.75;5075365;28;19909;-73
2022/08/17 08:04:26;;;;;;;4.55;4.13;;;;;;;24.46;53.62;100517.84;5071816;28;20024;-73
2022/08/17 08:06:53;;;;;;;4.65;4.15;;;;;;;24.55;53.19;100521.66;5066329;28;20023;-73
2022/08/17 08:09:37;;;;;;;5.07;4.35;;;;;;;24.58;53.29;100522.19;5063051;28;20033;-74
2022/08/17 08:12:22;;;;;;;4.70;4.30;;;;;;;24.59;53.40;100516.47;5076667;28;20363;-73
2022/08/17 08:14:55;;;;;;;4.70;4.30;;;;;;;24.65;52.88;100514.53;5074312;28;20043;-74
2022/08/17 08:17:23;;;;;;;4.82;4.35;;;;;;;24.59;53.24;100516.47;5073950;28;20020;-71
2022/08/17 08:19:49;;;;;;;4.85;4.35;;;;;;;24.55;53.33;100518.94;5073404;28;20028;-72
2022/08/17 08:22:20;;;;;;;4.85;4.45;;;;;;;24.64;53.22;100527.38;5056410;28;20074;-71
2022/08/17 08:24:54;;;;;;;4.90;4.40;;;;;;;24.60;53.46;100517.28;5055778;28;20452;-69
2022/08/17 08:27:43;;;;;;;4.45;4.05;;;;;;;24.58;53.13;100514.84;5072270;28;20025;-70
2022/08/17 08:30:12;;;;;;;4.85;4.45;;;;;;;24.57;53.56;100515.13;5060086;28;20032;-71
2022/08/17 08:32:43;;;;;;;3.88;3.58;;;;;;;24.60;53.45;100522.75;5059873;28;20098;-71
2022/08/17 08:35:26;;;;;;;6.00;3.85;;;;;;;24.61;53.19;100516.19;5076305;28;20029;-70
2022/08/17 08:38:16;;;;;;;4.68;3.92;;;;;;;24.60;53.50;100517.28;5076449;28;20024;-70
2022/08/17 08:41:21;;;;;;;4.30;3.90;;;;;;;24.59;53.52;100515.66;5079346;28;20035;-71
2022/08/17 08:44:23;;;;;;;4.68;4.18;;;;;;;24.58;53.44;100517.56;5014467;28;20026;-71
2022/08/17 08:47:07;;;;;;;4.10;3.80;;;;;;;24.62;53.29;100526.03;5014880;28;20072;-72
2022/08/17 08:49:35;;;;;;;4.63;3.88;;;;;;;24.59;53.42;100526.56;5001407;28;20029;-71
2022/08/17 08:52:02;;;;;;;3.92;3.60;;;;;;;24.63;53.20;100527.66;5014644;28;20026;-72
2022/08/17 08:54:47;;;;;;;4.03;3.63;;;;;;;24.68;53.40;100522.16;5014789;28;20044;-72
2022/08/17 08:57:15;;;;;;;4.50;3.88;;;;;;;24.65;53.53;100523.56;5015223;28;20061;-72
2022/08/17 09:00:13;;;;;;;4.13;3.72;;;;;;;24.69;53.34;100521.06;4999733;28;20034;-72
2022/08/17 09:03:09;;;;;;;3.78;3.47;;;;;;;24.70;53.16;100523.53;5014685;28;20038;-71
2022/08/17 09:06:04;;;;;;;4.10;3.80;;;;;;;24.73;53.30;100517.53;5015642;28;20029;-71
2022/08/17 09:08:57;;;;;;;4.05;3.70;;;;;;;24.72;53.26;100520.53;4941100;29;20066;-71
2022/08/17 09:11:53;;;;;;;3.92;3.45;;;;;;;24.72;53.39;100512.31;4940854;29;20027;-71
2022/08/17 09:14:36;;;;;;;4.50;4.10;;;;;;;24.74;53.06;100507.41;4957925;28;20039;-71
2022/08/17 09:17:11;;;;;;;4.20;3.83;;;;;;;24.76;53.14;100502.47;4959765;29;20055;-71
2022/08/17 09:20:08;;;;;;;4.05;3.30;;;;;;;24.71;53.25;100508.75;4928101;29;20087;-71
2022/08/17 09:22:41;;;;;;;4.00;3.70;;;;;;;24.80;52.76;100505.44;4945655;29;20111;-69
2022/08/17 09:25:22;;;;;;;3.63;3.33;;;;;;;24.78;53.34;100499.44;4930588;28;20059;-71
2022/08/17 09:28:07;;;;;;;4.20;3.65;;;;;;;24.80;53.13;100506.28;4940850;29;20051;-71
2022/08/17 09:31:03;;;;;;;3.95;3.35;;;;;;;24.73;53.27;100492.94;4921047;29;20170;-72
2022/08/17 09:33:28;;;;;;;3.42;3.13;;;;;;;24.74;53.08;100501.94;4920479;29;20459;-72
2022/08/17 09:36:06;;;;;;;4.28;3.88;;;;;;;24.78;53.41;100481.13;4920841;29;20032;-70
2022/08/17 09:38:38;;;;;;;4.22;3.53;;;;;;;24.71;53.56;100486.09;4936174;29;20197;-70
2022/08/17 09:41:20;;;;;;;3.58;3.28;;;;;;;24.67;53.70;100482.28;4935541;29;20027;-71
2022/08/17 09:44:05;;;;;;;3.72;3.30;;;;;;;24.72;53.36;100482.28;4919811;29;20410;-70
2022/08/17 09:46:36;;;;;;;3.90;3.50;;;;;;;24.63;53.83;100483.94;5024061;28;20049;-70
2022/08/17 09:49:22;;;;;;;3.95;3.45;;;;;;;24.67;53.60;100480.38;5055713;28;20045;-72
2022/08/17 09:51:51;;;;;;;4.00;3.60;;;;;;;24.62;53.63;100479.56;5058309;28;20043;-71
2022/08/17 09:54:28;;;;;;;19.25;9.73;;;;;;;24.64;53.41;100471.91;5075017;28;20152;-71
2022/08/17 09:56:53;;;;;;;40.50;17.38;;;;;;;24.71;53.16;100475.97;5075007;28;20115;-71
2022/08/17 09:59:21;;;;;;;35.28;12.73;;;;;;;24.80;53.04;100469.91;5075139;28;20021;-70
2022/08/17 10:01:54;;;;;;;21.30;9.48;;;;;;;24.76;53.52;100472.41;5075081;28;20052;-71
2022/08/17 10:04:41;;;;;;;14.63;7.30;;;;;;;24.74;53.21;100469.13;5075129;28;20025;-72
2022/08/17 10:07:14;;;;;;;7.82;5.63;;;;;;;24.82;53.10;100454.88;5057579;28;20115;-72
2022/08/17 10:09:55;;;;;;;9.52;4.82;;;;;;;24.85;53.07;100470.72;5056798;28;20055;-72
2022/08/17 10:12:26;;;;;;;9.35;4.97;;;;;;;24.87;52.52;100462.22;5075000;28;20438;-71
2022/08/17 10:15:09;;;;;;;6.85;4.32;;;;;;;24.85;52.91;100465.28;5076716;28;20044;-71
2022/08/17 10:17:44;;;;;;;7.45;4.55;;;;;;;24.86;52.78;100469.63;5075795;28;20032;-72
2022/08/17 10:20:24;;;;;;;5.82;4.03;;;;;;;24.99;52.31;100461.91;5077620;28;20039;-76
2022/08/17 10:26:14;;;;;;;5.40;4.30;;;;;;;24.93;52.61;100464.66;5047249;28;20481;-76
2022/08/17 10:28:54;;;;;;;4.07;3.67;;;;;;;25.06;52.23;100462.38;5060649;28;20047;-78
2022/08/17 10:31:24;;;;;;;4.80;3.58;;;;;;;25.05;52.25;100453.38;5058709;28;20024;-77
2022/08/17 10:33:58;;;;;;;4.78;3.63;;;;;;;25.05;51.97;100463.50;5040702;28;20048;-77
2022/08/17 10:36:28;;;;;;;3.97;3.58;;;;;;;24.97;52.30;100461.38;5075152;28;20105;-77
2022/08/17 10:39:10;;;;;;;4.38;3.58;;;;;;;25.00;52.01;100469.81;5040947;28;20059;-77
2022/08/17 10:41:41;;;;;;;5.00;3.63;;;;;;;25.02;52.20;100459.41;5075072;28;20059;-76
2022/08/17 10:44:17;;;;;;;3.72;3.38;;;;;;;25.00;52.36;100461.63;5056859;28;20020;-76
2022/08/17 10:46:55;;;;;;;5.13;3.92;;;;;;;24.86;52.45;100455.94;5074072;28;20027;-77
2022/08/17 10:49:24;;;;;;;4.70;3.70;;;;;;;25.02;52.17;100453.94;5056470;28;20350;-76
2022/08/17 10:51:55;;;;;;;5.50;3.92;;;;;;;25.03;52.41;100454.78;5022986;28;20055;-79
2022/08/17 10:54:23;;;;;;;4.03;3.63;;;;;;;25.04;52.24;100456.41;5055556;28;20043;-78
2022/08/17 10:56:49;;;;;;;3.78;3.47;;;;;;;25.22;52.48;100458.47;5073776;28;20410;-78
2022/08/17 10:59:34;;;;;;;3.85;3.53;;;;;;;25.29;52.58;100459.00;5057325;28;20040;-78
2022/08/17 11:01:59;;;;;;;3.75;3.15;;;;;;;25.10;52.71;100468.94;5074475;28;20455;-78
2022/08/17 11:04:43;;;;;;;3.20;2.90;;;;;;;25.08;52.54;100460.22;5074389;28;20035;-78
2022/08/17 11:07:57;;;;;;;3.40;3.10;;;;;;;25.12;52.39;100461.28;5074796;28;20021;-78
2022/08/17 11:10:50;;;;;;;3.58;3.28;;;;;;;25.17;52.10;100454.97;4993409;28;20065;-78
2022/08/17 11:13:43;;;;;;;3.88;3.40;;;;;;;25.17;51.95;100455.78;4993533;28;20045;-78
2022/08/17 11:16:33;;;;;;;4.55;3.38;;;;;;;25.11;52.20;100463.19;4995845;28;20067;-79
2022/08/17 11:19:42;;;;;;;32.47;13.45;;;;;;;25.13;52.05;100460.19;5003093;28;20038;-78
2022/08/17 11:22:22;;;;;;;16.25;7.57;;;;;;;25.20;51.85;100455.22;4935394;29;20532;-78
2022/08/17 11:24:50;;;;;;;62.33;25.10;;;;;;;25.17;51.87;100460.44;4935627;28;20051;-77
2022/08/17 11:27:25;;;;;;;50.22;20.80;;;;;;;25.24;52.23;100455.47;4936269;29;20126;-77
2022/08/17 11:29:58;;;;;;;21.27;10.85;;;;;;;25.24;52.10;100463.66;4936507;29;20475;-78
2022/08/17 11:32:43;;;;;;;15.48;6.68;;;;;;;25.18;52.16;100471.09;4935901;29;20043;-78
2022/08/17 11:35:11;;;;;;;;;;;;;;;25.33;52.09;100458.44;4935979;29;20047;-76
2022/08/17 11:37:54;;;;;;;13.77;7.47;;;;;;;25.36;51.89;100468.81;4936093;29;19915;-78
2022/08/17 11:40:24;;;;;;;13.23;7.30;;;;;;;25.33;51.80;100463.91;4937105;29;20153;-78
2022/08/17 11:43:03;;;;;;;12.20;6.30;;;;;;;25.35;52.16;100458.97;4935696;29;20036;-78
2022/08/17 11:46:06;;;;;;;10.50;5.75;;;;;;;25.38;52.42;100466.59;4942001;29;20043;-77
2022/08/17 11:51:33;;;;;;;6.25;4.95;;;;;;;25.32;52.49;100459.53;4953704;29;20086;-76
2022/08/17 11:54:15;;;;;;;5.85;4.22;;;;;;;25.21;52.35;100461.50;4939018;29;20031;-77
2022/08/17 11:56:48;;;;;;;6.43;4.30;;;;;;;25.09;52.76;100470.03;4944621;28;20501;-77
2022/08/17 11:59:43;;;;;;;4.28;3.88;;;;;;;25.18;52.58;100471.09;5025146;28;20025;-77
2022/08/17 12:02:29;;;;;;;10.02;4.55;;;;;;;25.13;53.25;100471.13;5018204;28;20080;-76
2022/08/17 12:05:13;;;;;;;4.00;3.60;;;;;;;25.27;52.75;100477.63;5035564;28;20108;-76
2022/08/17 12:08:11;;;;;;;4.03;3.63;;;;;;;25.37;52.38;100473.16;5037293;28;20030;-76
2022/08/17 12:10:47;;;;;;;6.35;4.60;;;;;;;25.33;52.12;100463.91;5019764;28;20776;-76
2022/08/17 12:13:13;;;;;;;5.55;4.45;;;;;;;25.40;51.99;100464.41;5037840;28;20026;-76
2022/08/17 12:15:47;;;;;;;5.30;4.10;;;;;;;25.48;51.54;100474.72;5035468;28;20027;-75
2022/08/17 12:18:30;;;;;;;6.63;4.47;;;;;;;25.47;51.56;100473.09;5051635;28;20387;-75
2022/08/17 12:21:04;;;;;;;5.03;4.15;;;;;;;25.50;51.43;100475.25;5037028;28;20413;-76